sensor_id;sensor_type;location;lat;lon;timestamp;P1;durP1;ratioP1;P2;durP2;ratioP2
3167;SDS011;37221;51.548;6.984;2022-07-12T00:01:30;3.23;;;2.33;;
3167;SDS011;37221;51.548;6.984;2022-07-12T00:03:56;4.50;;;2.23;;
3167;SDS011;37221;51.548;6.984;2022-07-12T00:06:21;4.60;;;2.80;;
3167;SDS011;37221;51.548;6.984;2022-07-12T00:08:47;2.70;;;2.50;;
3167;SDS011;37221;51.548;6.984;2022-07-12T00:11:13;5.57;;;3.13;;
3167;SDS011;37221;51.548;6.984;2022-07-12T00:13:39;5.30;;;4.80;;
3167;SDS011;37221;51.548;6.984;2022-07-12T00:16:04;4.33;;;3.20;;
3167;SDS011;37221;51.548;6.984;2022-07-12T00:18:31;3.47;;;3.00;;
3167;SDS011;37221;51.548;6.984;2022-07-12T00:20:57;3.57;;;2.87;;
3167;SDS011;37221;51.548;6.984;2022-07-12T00:23:23;3.40;;;2.50;;
3167;SDS011;37221;51.548;6.984;2022-07-12T00:25:49;2.50;;;2.30;;
3167;SDS011;37221;51.548;6.984;2022-07-12T00:28:15;2.37;;;2.00;;
3167;SDS011;37221;51.548;6.984;2022-07-12T00:30:40;2.90;;;2.10;;
3167;SDS011;37221;51.548;6.984;2022-07-12T00:33:06;3.77;;;2.33;;
3167;SDS011;37221;51.548;6.984;2022-07-12T00:35:33;2.37;;;2.13;;
3167;SDS011;37221;51.548;6.984;2022-07-12T00:37:59;3.17;;;2.40;;
3167;SDS011;37221;51.548;6.984;2022-07-12T00:40:25;3.87;;;3.47;;
3167;SDS011;37221;51.548;6.984;2022-07-12T00:42:51;4.97;;;3.53;;
3167;SDS011;37221;51.548;6.984;2022-07-12T00:45:16;2.83;;;2.60;;
3167;SDS011;37221;51.548;6.984;2022-07-12T00:47:43;4.73;;;3.80;;
3167;SDS011;37221;51.548;6.984;2022-07-12T00:50:15;5.57;;;4.57;;
3167;SDS011;37221;51.548;6.984;2022-07-12T01:04:40;1.63;;;1.43;;
3167;SDS011;37221;51.548;6.984;2022-07-12T01:07:10;2.73;;;1.70;;
3167;SDS011;37221;51.548;6.984;2022-07-12T01:09:37;2.20;;;2.00;;
3167;SDS011;37221;51.548;6.984;2022-07-12T01:12:04;3.23;;;2.60;;
3167;SDS011;37221;51.548;6.984;2022-07-12T01:14:30;3.80;;;2.37;;
3167;SDS011;37221;51.548;6.984;2022-07-12T01:16:59;3.20;;;2.30;;
3167;SDS011;37221;51.548;6.984;2022-07-12T01:19:25;3.40;;;3.10;;
3167;SDS011;37221;51.548;6.984;2022-07-12T01:21:53;6.33;;;2.60;;
3167;SDS011;37221;51.548;6.984;2022-07-12T01:24:26;3.23;;;2.87;;
3167;SDS011;37221;51.548;6.984;2022-07-12T01:26:52;2.63;;;2.07;;
3167;SDS011;37221;51.548;6.984;2022-07-12T01:29:18;1.60;;;1.50;;
3167;SDS011;37221;51.548;6.984;2022-07-12T01:31:45;2.07;;;1.77;;
3167;SDS011;37221;51.548;6.984;2022-07-12T01:34:12;6.50;;;2.30;;
3167;SDS011;37221;51.548;6.984;2022-07-12T01:36:39;4.50;;;3.60;;
3167;SDS011;37221;51.548;6.984;2022-07-12T01:39:07;8.37;;;3.87;;
3167;SDS011;37221;51.548;6.984;2022-07-12T01:41:32;4.90;;;3.43;;
3167;SDS011;37221;51.548;6.984;2022-07-12T01:43:58;4.23;;;3.30;;
3167;SDS011;37221;51.548;6.984;2022-07-12T01:46:24;5.80;;;3.10;;
3167;SDS011;37221;51.548;6.984;2022-07-12T01:48:50;5.40;;;3.97;;
3167;SDS011;37221;51.548;6.984;2022-07-12T01:51:16;3.60;;;3.27;;
3167;SDS011;37221;51.548;6.984;2022-07-12T01:53:42;2.67;;;2.07;;
3167;SDS011;37221;51.548;6.984;2022-07-12T01:56:07;2.10;;;1.90;;
3167;SDS011;37221;51.548;6.984;2022-07-12T01:58:34;4.20;;;2.63;;
3167;SDS011;37221;51.548;6.984;2022-07-12T02:01:00;8.83;;;3.47;;
3167;SDS011;37221;51.548;6.984;2022-07-12T02:03:26;9.57;;;3.90;;
3167;SDS011;37221;51.548;6.984;2022-07-12T02:05:51;3.20;;;2.40;;
3167;SDS011;37221;51.548;6.984;2022-07-12T02:08:17;1.83;;;1.70;;
3167;SDS011;37221;51.548;6.984;2022-07-12T02:10:43;4.03;;;2.73;;
3167;SDS011;37221;51.548;6.984;2022-07-12T02:13:09;2.47;;;2.27;;
3167;SDS011;37221;51.548;6.984;2022-07-12T02:15:35;3.63;;;2.27;;
3167;SDS011;37221;51.548;6.984;2022-07-12T02:18:01;2.93;;;2.07;;
3167;SDS011;37221;51.548;6.984;2022-07-12T02:20:28;5.07;;;2.03;;
3167;SDS011;37221;51.548;6.984;2022-07-12T02:22:53;2.67;;;2.43;;
3167;SDS011;37221;51.548;6.984;2022-07-12T02:25:19;1.97;;;1.50;;
3167;SDS011;37221;51.548;6.984;2022-07-12T02:27:45;4.63;;;2.20;;
3167;SDS011;37221;51.548;6.984;2022-07-12T02:30:10;2.70;;;2.20;;
3167;SDS011;37221;51.548;6.984;2022-07-12T02:32:37;2.93;;;2.10;;
3167;SDS011;37221;51.548;6.984;2022-07-12T02:35:04;2.03;;;1.60;;
3167;SDS011;37221;51.548;6.984;2022-07-12T02:37:30;1.73;;;1.63;;
3167;SDS011;37221;51.548;6.984;2022-07-12T02:39:56;4.87;;;2.10;;
3167;SDS011;37221;51.548;6.984;2022-07-12T02:42:40;5.13;;;2.07;;
3167;SDS011;37221;51.548;6.984;2022-07-12T02:45:06;3.00;;;2.30;;
3167;SDS011;37221;51.548;6.984;2022-07-12T02:47:32;3.17;;;1.70;;
3167;SDS011;37221;51.548;6.984;2022-07-12T02:50:06;2.27;;;1.90;;
3167;SDS011;37221;51.548;6.984;2022-07-12T02:52:33;1.23;;;1.13;;
3167;SDS011;37221;51.548;6.984;2022-07-12T02:54:59;1.40;;;1.30;;
3167;SDS011;37221;51.548;6.984;2022-07-12T02:57:25;1.60;;;1.50;;
3167;SDS011;37221;51.548;6.984;2022-07-12T02:59:51;2.43;;;1.30;;
3167;SDS011;37221;51.548;6.984;2022-07-12T03:02:17;1.57;;;1.30;;
3167;SDS011;37221;51.548;6.984;2022-07-12T03:04:43;1.50;;;1.40;;
3167;SDS011;37221;51.548;6.984;2022-07-12T03:11:08;2.60;;;2.30;;
3167;SDS011;37221;51.548;6.984;2022-07-12T03:13:34;2.57;;;2.10;;
3167;SDS011;37221;51.548;6.984;2022-07-12T03:15:59;1.60;;;1.47;;
3167;SDS011;37221;51.548;6.984;2022-07-12T03:18:25;1.97;;;1.77;;
3167;SDS011;37221;51.548;6.984;2022-07-12T03:20:51;2.27;;;1.93;;
3167;SDS011;37221;51.548;6.984;2022-07-12T03:23:17;1.67;;;1.57;;
3167;SDS011;37221;51.548;6.984;2022-07-12T03:25:42;1.67;;;1.10;;
3167;SDS011;37221;51.548;6.984;2022-07-12T03:28:08;1.63;;;1.53;;
3167;SDS011;37221;51.548;6.984;2022-07-12T03:30:33;3.80;;;1.73;;
3167;SDS011;37221;51.548;6.984;2022-07-12T03:32:59;1.90;;;1.60;;
3167;SDS011;37221;51.548;6.984;2022-07-12T03:35:25;1.43;;;1.33;;
3167;SDS011;37221;51.548;6.984;2022-07-12T03:37:51;2.10;;;1.70;;
3167;SDS011;37221;51.548;6.984;2022-07-12T03:40:19;1.20;;;1.10;;
3167;SDS011;37221;51.548;6.984;2022-07-12T03:42:47;1.53;;;1.10;;
3167;SDS011;37221;51.548;6.984;2022-07-12T03:45:13;4.10;;;1.60;;
3167;SDS011;37221;51.548;6.984;2022-07-12T03:47:40;1.67;;;1.53;;
3167;SDS011;37221;51.548;6.984;2022-07-12T03:50:11;2.77;;;2.10;;
3167;SDS011;37221;51.548;6.984;2022-07-12T03:52:39;3.30;;;2.30;;
3167;SDS011;37221;51.548;6.984;2022-07-12T03:55:07;2.80;;;2.20;;
3167;SDS011;37221;51.548;6.984;2022-07-12T03:57:37;2.23;;;2.03;;
3167;SDS011;37221;51.548;6.984;2022-07-12T04:00:04;2.50;;;2.30;;
3167;SDS011;37221;51.548;6.984;2022-07-12T04:02:37;2.23;;;2.03;;
3167;SDS011;37221;51.548;6.984;2022-07-12T04:05:05;3.80;;;2.30;;
3167;SDS011;37221;51.548;6.984;2022-07-12T04:07:32;2.83;;;2.37;;
3167;SDS011;37221;51.548;6.984;2022-07-12T04:09:58;5.70;;;2.47;;
3167;SDS011;37221;51.548;6.984;2022-07-12T04:12:24;3.00;;;2.00;;
3167;SDS011;37221;51.548;6.984;2022-07-12T04:14:49;6.90;;;2.37;;
3167;SDS011;37221;51.548;6.984;2022-07-12T04:17:16;3.73;;;2.50;;
3167;SDS011;37221;51.548;6.984;2022-07-12T04:19:42;2.60;;;2.40;;
3167;SDS011;37221;51.548;6.984;2022-07-12T04:22:07;2.70;;;2.10;;
3167;SDS011;37221;51.548;6.984;2022-07-12T04:24:33;2.57;;;2.37;;
3167;SDS011;37221;51.548;6.984;2022-07-12T04:26:59;2.60;;;2.33;;
3167;SDS011;37221;51.548;6.984;2022-07-12T04:29:24;2.80;;;2.57;;
3167;SDS011;37221;51.548;6.984;2022-07-12T04:35:17;3.87;;;2.67;;
3167;SDS011;37221;51.548;6.984;2022-07-12T04:37:43;3.10;;;2.80;;
3167;SDS011;37221;51.548;6.984;2022-07-12T04:40:09;2.90;;;2.33;;
3167;SDS011;37221;51.548;6.984;2022-07-12T04:42:36;2.50;;;1.80;;
3167;SDS011;37221;51.548;6.984;2022-07-12T04:45:02;2.67;;;2.47;;
3167;SDS011;37221;51.548;6.984;2022-07-12T04:47:29;2.80;;;2.60;;
3167;SDS011;37221;51.548;6.984;2022-07-12T04:49:54;4.57;;;3.30;;
3167;SDS011;37221;51.548;6.984;2022-07-12T04:52:20;3.10;;;2.43;;
3167;SDS011;37221;51.548;6.984;2022-07-12T04:54:46;6.03;;;3.37;;
3167;SDS011;37221;51.548;6.984;2022-07-12T04:57:12;2.93;;;2.63;;
3167;SDS011;37221;51.548;6.984;2022-07-12T04:59:38;3.47;;;3.13;;
3167;SDS011;37221;51.548;6.984;2022-07-12T05:02:03;3.30;;;3.00;;
3167;SDS011;37221;51.548;6.984;2022-07-12T05:04:33;4.00;;;3.00;;
3167;SDS011;37221;51.548;6.984;2022-07-12T05:06:59;3.97;;;3.57;;
3167;SDS011;37221;51.548;6.984;2022-07-12T05:09:24;3.50;;;3.20;;
3167;SDS011;37221;51.548;6.984;2022-07-12T05:11:50;4.37;;;3.70;;
3167;SDS011;37221;51.548;6.984;2022-07-12T05:14:16;4.60;;;3.17;;
3167;SDS011;37221;51.548;6.984;2022-07-12T05:16:41;3.80;;;3.50;;
3167;SDS011;37221;51.548;6.984;2022-07-12T05:19:07;2.87;;;2.67;;
3167;SDS011;37221;51.548;6.984;2022-07-12T05:21:33;3.53;;;3.23;;
3167;SDS011;37221;51.548;6.984;2022-07-12T05:23:59;5.80;;;3.30;;
3167;SDS011;37221;51.548;6.984;2022-07-12T05:26:28;4.50;;;4.00;;
3167;SDS011;37221;51.548;6.984;2022-07-12T05:28:54;6.77;;;5.20;;
3167;SDS011;37221;51.548;6.984;2022-07-12T05:31:20;6.73;;;4.83;;
3167;SDS011;37221;51.548;6.984;2022-07-12T05:33:46;7.40;;;5.60;;
3167;SDS011;37221;51.548;6.984;2022-07-12T05:36:12;8.07;;;6.20;;
3167;SDS011;37221;51.548;6.984;2022-07-12T05:38:37;6.97;;;6.27;;
3167;SDS011;37221;51.548;6.984;2022-07-12T05:41:03;6.77;;;6.17;;
3167;SDS011;37221;51.548;6.984;2022-07-12T05:43:29;5.50;;;5.00;;
3167;SDS011;37221;51.548;6.984;2022-07-12T05:45:55;5.23;;;4.73;;
3167;SDS011;37221;51.548;6.984;2022-07-12T05:48:21;5.20;;;4.70;;
3167;SDS011;37221;51.548;6.984;2022-07-12T05:50:47;8.47;;;5.80;;
3167;SDS011;37221;51.548;6.984;2022-07-12T05:53:13;5.87;;;5.30;;
3167;SDS011;37221;51.548;6.984;2022-07-12T05:55:48;10.00;;;4.93;;
3167;SDS011;37221;51.548;6.984;2022-07-12T05:58:19;6.40;;;4.90;;
3167;SDS011;37221;51.548;6.984;2022-07-12T06:00:46;8.07;;;6.10;;
3167;SDS011;37221;51.548;6.984;2022-07-12T06:03:13;5.80;;;5.00;;
3167;SDS011;37221;51.548;6.984;2022-07-12T06:05:40;4.50;;;4.10;;
3167;SDS011;37221;51.548;6.984;2022-07-12T06:08:05;3.97;;;3.67;;
3167;SDS011;37221;51.548;6.984;2022-07-12T06:10:31;4.37;;;3.97;;
3167;SDS011;37221;51.548;6.984;2022-07-12T06:12:58;5.60;;;4.03;;
3167;SDS011;37221;51.548;6.984;2022-07-12T06:19:03;4.50;;;3.80;;
3167;SDS011;37221;51.548;6.984;2022-07-12T06:21:29;5.53;;;3.63;;
3167;SDS011;37221;51.548;6.984;2022-07-12T06:23:54;5.00;;;4.40;;
3167;SDS011;37221;51.548;6.984;2022-07-12T06:26:20;5.37;;;4.93;;
3167;SDS011;37221;51.548;6.984;2022-07-12T06:28:45;6.37;;;5.50;;
3167;SDS011;37221;51.548;6.984;2022-07-12T06:31:11;6.23;;;4.83;;
3167;SDS011;37221;51.548;6.984;2022-07-12T06:33:37;6.17;;;4.17;;
3167;SDS011;37221;51.548;6.984;2022-07-12T06:36:03;4.73;;;4.30;;
3167;SDS011;37221;51.548;6.984;2022-07-12T06:38:29;4.57;;;4.07;;
3167;SDS011;37221;51.548;6.984;2022-07-12T06:40:55;5.17;;;4.00;;
3167;SDS011;37221;51.548;6.984;2022-07-12T06:43:20;4.43;;;3.90;;
3167;SDS011;37221;51.548;6.984;2022-07-12T06:45:46;4.77;;;3.90;;
3167;SDS011;37221;51.548;6.984;2022-07-12T06:48:12;4.30;;;3.70;;
3167;SDS011;37221;51.548;6.984;2022-07-12T06:50:37;5.60;;;5.10;;
3167;SDS011;37221;51.548;6.984;2022-07-12T06:53:03;6.00;;;4.83;;
3167;SDS011;37221;51.548;6.984;2022-07-12T06:58:17;7.40;;;5.73;;
3167;SDS011;37221;51.548;6.984;2022-07-12T07:00:43;5.13;;;4.70;;
3167;SDS011;37221;51.548;6.984;2022-07-12T07:03:08;7.67;;;4.97;;
3167;SDS011;37221;51.548;6.984;2022-07-12T07:05:35;8.57;;;5.90;;
3167;SDS011;37221;51.548;6.984;2022-07-12T07:08:01;5.00;;;4.10;;
3167;SDS011;37221;51.548;6.984;2022-07-12T07:10:28;4.43;;;3.97;;
3167;SDS011;37221;51.548;6.984;2022-07-12T07:12:54;7.53;;;4.77;;
3167;SDS011;37221;51.548;6.984;2022-07-12T07:15:20;5.80;;;4.90;;
3167;SDS011;37221;51.548;6.984;2022-07-12T07:17:45;6.20;;;5.60;;
3167;SDS011;37221;51.548;6.984;2022-07-12T07:20:11;5.83;;;5.23;;
3167;SDS011;37221;51.548;6.984;2022-07-12T07:22:37;6.10;;;5.50;;
3167;SDS011;37221;51.548;6.984;2022-07-12T07:25:04;6.63;;;5.27;;
3167;SDS011;37221;51.548;6.984;2022-07-12T07:27:31;4.90;;;4.10;;
3167;SDS011;37221;51.548;6.984;2022-07-12T07:29:57;5.87;;;5.27;;
3167;SDS011;37221;51.548;6.984;2022-07-12T07:32:42;4.10;;;3.70;;
3167;SDS011;37221;51.548;6.984;2022-07-12T07:35:08;5.10;;;4.53;;
3167;SDS011;37221;51.548;6.984;2022-07-12T07:37:34;5.63;;;5.00;;
3167;SDS011;37221;51.548;6.984;2022-07-12T07:40:00;5.50;;;4.13;;
3167;SDS011;37221;51.548;6.984;2022-07-12T07:42:26;5.97;;;5.37;;
3167;SDS011;37221;51.548;6.984;2022-07-12T07:44:52;4.57;;;4.17;;
3167;SDS011;37221;51.548;6.984;2022-07-12T07:47:17;5.50;;;3.30;;
3167;SDS011;37221;51.548;6.984;2022-07-12T07:49:43;5.10;;;3.27;;
3167;SDS011;37221;51.548;6.984;2022-07-12T07:52:09;2.50;;;2.30;;
3167;SDS011;37221;51.548;6.984;2022-07-12T07:54:35;4.13;;;3.03;;
3167;SDS011;37221;51.548;6.984;2022-07-12T07:57:00;2.60;;;2.40;;
3167;SDS011;37221;51.548;6.984;2022-07-12T07:59:26;4.40;;;3.40;;
3167;SDS011;37221;51.548;6.984;2022-07-12T08:01:52;3.03;;;2.83;;
3167;SDS011;37221;51.548;6.984;2022-07-12T08:04:18;4.37;;;3.20;;
3167;SDS011;37221;51.548;6.984;2022-07-12T08:06:46;4.53;;;3.60;;
3167;SDS011;37221;51.548;6.984;2022-07-12T08:09:15;4.33;;;3.30;;
3167;SDS011;37221;51.548;6.984;2022-07-12T08:11:42;4.53;;;3.77;;
3167;SDS011;37221;51.548;6.984;2022-07-12T08:14:08;2.90;;;2.60;;
3167;SDS011;37221;51.548;6.984;2022-07-12T08:16:36;3.90;;;2.80;;
3167;SDS011;37221;51.548;6.984;2022-07-12T08:19:03;3.70;;;3.40;;
3167;SDS011;37221;51.548;6.984;2022-07-12T08:21:31;4.23;;;2.50;;
3167;SDS011;37221;51.548;6.984;2022-07-12T08:23:56;4.50;;;3.50;;
3167;SDS011;37221;51.548;6.984;2022-07-12T08:26:22;4.47;;;3.07;;
3167;SDS011;37221;51.548;6.984;2022-07-12T08:28:48;2.87;;;2.67;;
3167;SDS011;37221;51.548;6.984;2022-07-12T08:31:14;4.53;;;3.13;;
3167;SDS011;37221;51.548;6.984;2022-07-12T08:33:39;4.50;;;3.13;;
3167;SDS011;37221;51.548;6.984;2022-07-12T08:36:07;4.23;;;3.20;;
3167;SDS011;37221;51.548;6.984;2022-07-12T08:38:35;4.53;;;2.70;;
3167;SDS011;37221;51.548;6.984;2022-07-12T08:41:03;3.27;;;2.93;;
3167;SDS011;37221;51.548;6.984;2022-07-12T08:43:34;3.80;;;3.50;;
3167;SDS011;37221;51.548;6.984;2022-07-12T08:46:02;4.00;;;3.70;;
3167;SDS011;37221;51.548;6.984;2022-07-12T08:48:34;4.23;;;3.70;;
3167;SDS011;37221;51.548;6.984;2022-07-12T08:51:07;6.53;;;3.10;;
3167;SDS011;37221;51.548;6.984;2022-07-12T08:53:39;4.37;;;3.00;;
3167;SDS011;37221;51.548;6.984;2022-07-12T08:56:07;4.60;;;3.47;;
3167;SDS011;37221;51.548;6.984;2022-07-12T08:59:13;5.20;;;3.70;;
3167;SDS011;37221;51.548;6.984;2022-07-12T09:01:48;6.30;;;4.27;;
3167;SDS011;37221;51.548;6.984;2022-07-12T09:04:18;5.73;;;4.13;;
3167;SDS011;37221;51.548;6.984;2022-07-12T09:06:55;4.97;;;3.33;;
3167;SDS011;37221;51.548;6.984;2022-07-12T09:09:25;7.03;;;3.60;;
3167;SDS011;37221;51.548;6.984;2022-07-12T09:12:00;6.43;;;5.07;;
3167;SDS011;37221;51.548;6.984;2022-07-12T09:14:27;5.10;;;3.60;;
3167;SDS011;37221;51.548;6.984;2022-07-12T09:19:38;3.10;;;2.80;;
3167;SDS011;37221;51.548;6.984;2022-07-12T09:22:13;4.80;;;3.30;;
3167;SDS011;37221;51.548;6.984;2022-07-12T09:24:43;4.40;;;4.00;;
3167;SDS011;37221;51.548;6.984;2022-07-12T09:27:09;3.87;;;2.30;;
3167;SDS011;37221;51.548;6.984;2022-07-12T09:29:47;3.03;;;2.83;;
3167;SDS011;37221;51.548;6.984;2022-07-12T09:32:15;4.60;;;2.73;;
3167;SDS011;37221;51.548;6.984;2022-07-12T09:35:00;3.50;;;3.20;;
3167;SDS011;37221;51.548;6.984;2022-07-12T09:37:48;3.60;;;3.30;;
3167;SDS011;37221;51.548;6.984;2022-07-12T09:40:14;5.73;;;3.03;;
3167;SDS011;37221;51.548;6.984;2022-07-12T09:42:40;3.33;;;2.80;;
3167;SDS011;37221;51.548;6.984;2022-07-12T09:45:07;2.70;;;2.50;;
3167;SDS011;37221;51.548;6.984;2022-07-12T09:47:35;4.70;;;3.23;;
3167;SDS011;37221;51.548;6.984;2022-07-12T09:50:05;3.93;;;2.60;;
3167;SDS011;37221;51.548;6.984;2022-07-12T09:52:36;2.87;;;2.67;;
3167;SDS011;37221;51.548;6.984;2022-07-12T09:55:05;2.10;;;1.90;;
3167;SDS011;37221;51.548;6.984;2022-07-12T10:01:16;2.03;;;1.83;;
3167;SDS011;37221;51.548;6.984;2022-07-12T10:03:44;1.80;;;1.67;;
3167;SDS011;37221;51.548;6.984;2022-07-12T10:06:12;3.60;;;2.17;;
3167;SDS011;37221;51.548;6.984;2022-07-12T10:08:54;3.17;;;2.77;;
3167;SDS011;37221;51.548;6.984;2022-07-12T10:11:22;2.77;;;2.43;;
3167;SDS011;37221;51.548;6.984;2022-07-12T10:13:50;4.73;;;3.00;;
3167;SDS011;37221;51.548;6.984;2022-07-12T10:16:24;2.90;;;2.67;;
3167;SDS011;37221;51.548;6.984;2022-07-12T10:21:59;4.60;;;2.50;;
3167;SDS011;37221;51.548;6.984;2022-07-12T10:26:56;4.53;;;2.77;;
3167;SDS011;37221;51.548;6.984;2022-07-12T10:33:20;4.27;;;2.20;;
3167;SDS011;37221;51.548;6.984;2022-07-12T10:38:31;3.30;;;2.77;;
3167;SDS011;37221;51.548;6.984;2022-07-12T10:41:21;2.20;;;2.00;;
3167;SDS011;37221;51.548;6.984;2022-07-12T10:44:04;2.93;;;2.23;;
3167;SDS011;37221;51.548;6.984;2022-07-12T10:46:30;2.13;;;1.93;;
3167;SDS011;37221;51.548;6.984;2022-07-12T10:49:22;2.53;;;2.33;;
3167;SDS011;37221;51.548;6.984;2022-07-12T10:57:12;2.60;;;2.40;;
3167;SDS011;37221;51.548;6.984;2022-07-12T10:59:38;4.40;;;1.47;;
3167;SDS011;37221;51.548;6.984;2022-07-12T11:02:04;3.80;;;2.10;;
3167;SDS011;37221;51.548;6.984;2022-07-12T11:04:30;3.20;;;2.73;;
3167;SDS011;37221;51.548;6.984;2022-07-12T11:07:00;2.13;;;1.93;;
3167;SDS011;37221;51.548;6.984;2022-07-12T11:09:28;2.10;;;1.90;;
3167;SDS011;37221;51.548;6.984;2022-07-12T11:11:54;2.43;;;2.20;;
3167;SDS011;37221;51.548;6.984;2022-07-12T11:14:23;2.60;;;2.40;;
3167;SDS011;37221;51.548;6.984;2022-07-12T11:16:57;4.40;;;2.23;;
3167;SDS011;37221;51.548;6.984;2022-07-12T11:19:25;3.70;;;2.80;;
3167;SDS011;37221;51.548;6.984;2022-07-12T11:21:56;2.70;;;2.40;;
3167;SDS011;37221;51.548;6.984;2022-07-12T11:26:52;2.60;;;2.40;;
3167;SDS011;37221;51.548;6.984;2022-07-12T11:29:19;3.43;;;2.60;;
3167;SDS011;37221;51.548;6.984;2022-07-12T11:31:46;2.50;;;2.05;;
3167;SDS011;37221;51.548;6.984;2022-07-12T11:34:19;3.07;;;2.80;;
3167;SDS011;37221;51.548;6.984;2022-07-12T11:36:50;2.87;;;2.50;;
3167;SDS011;37221;51.548;6.984;2022-07-12T11:39:30;2.00;;;1.90;;
3167;SDS011;37221;51.548;6.984;2022-07-12T11:42:02;1.93;;;1.83;;
3167;SDS011;37221;51.548;6.984;2022-07-12T11:44:43;3.63;;;2.40;;
3167;SDS011;37221;51.548;6.984;2022-07-12T11:47:15;2.80;;;2.37;;
3167;SDS011;37221;51.548;6.984;2022-07-12T11:49:51;2.53;;;2.33;;
3167;SDS011;37221;51.548;6.984;2022-07-12T11:52:21;3.30;;;2.27;;
3167;SDS011;37221;51.548;6.984;2022-07-12T11:54:49;2.40;;;1.80;;
3167;SDS011;37221;51.548;6.984;2022-07-12T11:57:21;4.93;;;2.80;;
3167;SDS011;37221;51.548;6.984;2022-07-12T11:59:48;6.40;;;2.83;;
3167;SDS011;37221;51.548;6.984;2022-07-12T12:02:15;6.33;;;3.23;;
3167;SDS011;37221;51.548;6.984;2022-07-12T12:07:13;2.43;;;2.23;;
3167;SDS011;37221;51.548;6.984;2022-07-12T12:12:52;3.00;;;2.30;;
3167;SDS011;37221;51.548;6.984;2022-07-12T12:20:30;2.20;;;2.03;;
3167;SDS011;37221;51.548;6.984;2022-07-12T12:22:59;2.23;;;2.10;;
3167;SDS011;37221;51.548;6.984;2022-07-12T12:25:29;2.83;;;2.33;;
3167;SDS011;37221;51.548;6.984;2022-07-12T12:30:30;3.53;;;1.80;;
3167;SDS011;37221;51.548;6.984;2022-07-12T12:33:01;2.37;;;2.03;;
3167;SDS011;37221;51.548;6.984;2022-07-12T12:35:37;4.18;;;2.00;;
3167;SDS011;37221;51.548;6.984;2022-07-12T12:40:41;1.97;;;1.87;;
3167;SDS011;37221;51.548;6.984;2022-07-12T12:43:19;2.50;;;2.13;;
3167;SDS011;37221;51.548;6.984;2022-07-12T12:50:52;3.60;;;2.37;;
3167;SDS011;37221;51.548;6.984;2022-07-12T12:53:28;2.37;;;2.17;;
3167;SDS011;37221;51.548;6.984;2022-07-12T12:55:54;5.27;;;1.90;;
3167;SDS011;37221;51.548;6.984;2022-07-12T12:58:22;2.27;;;2.07;;
3167;SDS011;37221;51.548;6.984;2022-07-12T13:00:51;2.10;;;1.90;;
3167;SDS011;37221;51.548;6.984;2022-07-12T13:03:21;3.10;;;2.10;;
3167;SDS011;37221;51.548;6.984;2022-07-12T13:05:51;2.60;;;2.00;;
3167;SDS011;37221;51.548;6.984;2022-07-12T13:08:18;1.90;;;1.70;;
3167;SDS011;37221;51.548;6.984;2022-07-12T13:10:46;2.67;;;2.40;;
3167;SDS011;37221;51.548;6.984;2022-07-12T13:13:13;2.50;;;2.30;;
3167;SDS011;37221;51.548;6.984;2022-07-12T13:15:39;2.43;;;2.23;;
3167;SDS011;37221;51.548;6.984;2022-07-12T13:18:05;2.97;;;2.53;;
3167;SDS011;37221;51.548;6.984;2022-07-12T13:20:32;2.87;;;2.57;;
3167;SDS011;37221;51.548;6.984;2022-07-12T13:22:59;5.57;;;2.40;;
3167;SDS011;37221;51.548;6.984;2022-07-12T13:25:25;3.50;;;3.13;;
3167;SDS011;37221;51.548;6.984;2022-07-12T13:27:52;2.53;;;2.33;;
3167;SDS011;37221;51.548;6.984;2022-07-12T13:30:18;3.83;;;3.10;;
3167;SDS011;37221;51.548;6.984;2022-07-12T13:32:46;4.97;;;2.77;;
3167;SDS011;37221;51.548;6.984;2022-07-12T13:35:12;4.43;;;2.90;;
3167;SDS011;37221;51.548;6.984;2022-07-12T13:37:39;4.70;;;3.00;;
3167;SDS011;37221;51.548;6.984;2022-07-12T13:40:08;3.27;;;2.67;;
3167;SDS011;37221;51.548;6.984;2022-07-12T13:42:42;3.70;;;3.17;;
3167;SDS011;37221;51.548;6.984;2022-07-12T13:45:17;3.40;;;3.10;;
3167;SDS011;37221;51.548;6.984;2022-07-12T13:47:47;3.83;;;3.30;;
3167;SDS011;37221;51.548;6.984;2022-07-12T13:50:16;5.30;;;3.43;;
3167;SDS011;37221;51.548;6.984;2022-07-12T13:52:48;3.00;;;2.70;;
3167;SDS011;37221;51.548;6.984;2022-07-12T13:55:15;3.80;;;3.23;;
3167;SDS011;37221;51.548;6.984;2022-07-12T13:57:42;5.00;;;3.10;;
3167;SDS011;37221;51.548;6.984;2022-07-12T14:00:18;3.10;;;2.80;;
3167;SDS011;37221;51.548;6.984;2022-07-12T14:02:47;3.53;;;3.23;;
3167;SDS011;37221;51.548;6.984;2022-07-12T14:05:15;3.53;;;3.23;;
3167;SDS011;37221;51.548;6.984;2022-07-12T14:07:42;4.67;;;3.00;;
3167;SDS011;37221;51.548;6.984;2022-07-12T14:10:10;5.50;;;3.17;;
3167;SDS011;37221;51.548;6.984;2022-07-12T14:12:39;3.30;;;3.10;;
3167;SDS011;37221;51.548;6.984;2022-07-12T14:15:06;4.33;;;2.73;;
3167;SDS011;37221;51.548;6.984;2022-07-12T14:17:46;4.30;;;3.27;;
3167;SDS011;37221;51.548;6.984;2022-07-12T14:20:19;3.50;;;3.03;;
3167;SDS011;37221;51.548;6.984;2022-07-12T14:22:46;6.97;;;3.00;;
3167;SDS011;37221;51.548;6.984;2022-07-12T14:25:14;4.10;;;3.70;;
3167;SDS011;37221;51.548;6.984;2022-07-12T14:27:41;4.50;;;3.90;;
3167;SDS011;37221;51.548;6.984;2022-07-12T14:30:09;5.40;;;3.03;;
3167;SDS011;37221;51.548;6.984;2022-07-12T14:32:38;4.60;;;4.20;;
3167;SDS011;37221;51.548;6.984;2022-07-12T14:35:07;5.67;;;4.63;;
3167;SDS011;37221;51.548;6.984;2022-07-12T14:37:35;5.07;;;4.33;;
3167;SDS011;37221;51.548;6.984;2022-07-12T14:40:04;4.60;;;4.10;;
3167;SDS011;37221;51.548;6.984;2022-07-12T14:42:32;5.13;;;4.57;;
3167;SDS011;37221;51.548;6.984;2022-07-12T14:44:58;3.50;;;3.10;;
3167;SDS011;37221;51.548;6.984;2022-07-12T14:47:24;5.33;;;3.83;;
3167;SDS011;37221;51.548;6.984;2022-07-12T14:49:50;4.70;;;4.00;;
3167;SDS011;37221;51.548;6.984;2022-07-12T14:52:18;7.30;;;3.70;;
3167;SDS011;37221;51.548;6.984;2022-07-12T14:54:44;6.30;;;4.10;;
3167;SDS011;37221;51.548;6.984;2022-07-12T14:57:10;3.53;;;2.90;;
3167;SDS011;37221;51.548;6.984;2022-07-12T14:59:36;3.95;;;2.78;;
3167;SDS011;37221;51.548;6.984;2022-07-12T15:02:02;6.60;;;3.10;;
3167;SDS011;37221;51.548;6.984;2022-07-12T15:04:28;4.27;;;3.77;;
3167;SDS011;37221;51.548;6.984;2022-07-12T15:06:55;3.73;;;3.37;;
3167;SDS011;37221;51.548;6.984;2022-07-12T15:09:21;4.17;;;3.53;;
3167;SDS011;37221;51.548;6.984;2022-07-12T15:11:47;4.87;;;2.97;;
3167;SDS011;37221;51.548;6.984;2022-07-12T15:14:12;6.90;;;3.57;;
3167;SDS011;37221;51.548;6.984;2022-07-12T15:16:38;3.63;;;2.33;;
3167;SDS011;37221;51.548;6.984;2022-07-12T15:19:04;4.28;;;2.55;;
3167;SDS011;37221;51.548;6.984;2022-07-12T15:21:29;3.83;;;2.70;;
3167;SDS011;37221;51.548;6.984;2022-07-12T15:23:55;7.43;;;3.50;;
3167;SDS011;37221;51.548;6.984;2022-07-12T15:26:21;4.90;;;3.10;;
3167;SDS011;37221;51.548;6.984;2022-07-12T15:28:51;4.80;;;2.73;;
3167;SDS011;37221;51.548;6.984;2022-07-12T15:31:27;3.30;;;3.00;;
3167;SDS011;37221;51.548;6.984;2022-07-12T15:33:57;3.17;;;2.73;;
3167;SDS011;37221;51.548;6.984;2022-07-12T15:36:25;4.20;;;2.70;;
3167;SDS011;37221;51.548;6.984;2022-07-12T15:38:50;2.37;;;2.17;;
3167;SDS011;37221;51.548;6.984;2022-07-12T15:41:17;3.07;;;2.73;;
3167;SDS011;37221;51.548;6.984;2022-07-12T15:43:43;3.63;;;2.93;;
3167;SDS011;37221;51.548;6.984;2022-07-12T15:46:10;4.77;;;4.37;;
3167;SDS011;37221;51.548;6.984;2022-07-12T15:48:36;6.23;;;5.03;;
3167;SDS011;37221;51.548;6.984;2022-07-12T15:51:04;9.30;;;4.07;;
3167;SDS011;37221;51.548;6.984;2022-07-12T15:53:32;4.22;;;3.40;;
3167;SDS011;37221;51.548;6.984;2022-07-12T15:56:02;5.95;;;4.40;;
3167;SDS011;37221;51.548;6.984;2022-07-12T15:58:38;13.97;;;12.57;;
3167;SDS011;37221;51.548;6.984;2022-07-12T16:01:07;11.55;;;10.45;;
3167;SDS011;37221;51.548;6.984;2022-07-12T16:03:34;10.10;;;7.40;;
3167;SDS011;37221;51.548;6.984;2022-07-12T16:06:01;8.90;;;7.90;;
3167;SDS011;37221;51.548;6.984;2022-07-12T16:08:29;5.83;;;3.73;;
3167;SDS011;37221;51.548;6.984;2022-07-12T16:10:56;3.70;;;3.40;;
3167;SDS011;37221;51.548;6.984;2022-07-12T16:13:22;3.97;;;2.63;;
3167;SDS011;37221;51.548;6.984;2022-07-12T16:15:49;4.10;;;2.90;;
3167;SDS011;37221;51.548;6.984;2022-07-12T16:18:15;2.60;;;2.30;;